Du har inga inställningar för hoppväder.nu

Hoppväder.nu

Senast uppdaterat 23:41

UTC-tid

2019-10-20 kl. 21:41


Sol och måne

Solen går upp 7:54 och går ner 18:42 (beräknade cirkatider)
Nästa fullmåne blir om 23 dagar (2019-11-12)

METAR

ESMK (Everöd)
(21 minuter sedan)
ESMK 202120Z AUTO 00000KT 0650 R01/P2000N R19/P2000N -DZ FEW083/// 10/10 Q1015=



ESMS (Malmö)
(21 minuter sedan)
ESMS 202120Z 08002KT 2500 R17/1100D R35/P1500N BCFG NSC 11/10 Q1015=



ESMX (Växjö)
(21 minuter sedan)
ESMX 202120Z AUTO 26002KT 2100 BR FEW015/// SCT026/// BKN130/// 08/08 Q1015=



ESDF (Ronneby)
(21 minuter sedan)
ESDF 202120Z AUTO 00000KT 2200 0500// R01/1300VP2000D R19/P2000N -RA BR BKN056/// OVC070/// 10/10 Q1015=



EKRN (Rønne, Bornholm)
(21 minuter sedan)
EKRN 202120Z AUTO 04005KT 9999 -RA OVC029/// 12/11 Q1014=



TAF

ESMK (Everöd)
(268 minuter sedan)
ESMK 201713Z 2018/2020 VRB02KT 9999 FEW020 BECMG 2018/2020 4000 BR=



ESMS (Malmö)
(130 minuter sedan)
ESMS AMD 201931Z 2019/2118 VRB02KT 6000 SCT020 TEMPO 2019/2021 2000 -RADZ BR BKN004 PROB40 2021/2109 0400 FG BKN002 TEMPO 2109/2118 4000 -RADZ BKN012=



ESMX (Växjö)
(251 minuter sedan)
ESMX 201730Z 2018/2021 VRB02KT 9999 MIFG NSC TEMPO 2018/2021 0500 FG VV002=



ESDF (Ronneby)
(251 minuter sedan)
ESDF 201730Z 2018/2022 VRB02KT 9999 MIFG NSC PROB40 2018/2022 0500 FG VV002=



EKRN (Rønne, Bornholm)
(257 minuter sedan)
EKRN 201724Z 2018/2022 VRB02KT 9999 BKN030 TEMPO 2018/2022 4000 -RADZ BKN008=





Kodnycklar till TAF och METAR






LHP

(Everöd är område J3b i Hela Område E)





Spotting

Hur fungerar spotthjälpen och Vindkartan?

Markvind är ca 0 m/s.



Vindkartan

Senast uppdaterad 23:41




All data kommer från LFV.se